Time;durP1;ratioP1;P1;durP2;ratioP2;P2;SDS_P1;SDS_P2;PMS_P1;PMS_P2;Temp;Humidity;BMP_temperature;BMP_pressure;BME280_temperature;BME280_humidity;BME280_pressure;Samples;Min_cycle;Max_cycle;Signal;HPM_P1;HPM_P2
2022/09/12 00:00:26;;;;;;;15.93;13.38;;;15.90;99.90;;;;;;5090227;28;20431;-63
2022/09/12 00:02:55;;;;;;;9.10;8.30;;;15.80;99.90;;;;;;5092210;28;20071;-63
2022/09/12 00:05:21;;;;;;;10.38;9.48;;;15.80;99.90;;;;;;5093861;28;20065;-63
2022/09/12 00:07:47;;;;;;;13.93;12.18;;;15.70;99.90;;;;;;5093967;28;20477;-63
2022/09/12 00:10:14;;;;;;;17.65;14.98;;;15.60;99.90;;;;;;5093895;28;20071;-63
2022/09/12 00:12:39;;;;;;;17.17;15.25;;;15.60;99.90;;;;;;5092056;28;20062;-63
2022/09/12 00:15:06;;;;;;;18.38;16.48;;;15.60;99.90;;;;;;5074350;28;20066;-63
2022/09/12 00:17:35;;;;;;;;;;;15.50;99.90;;;;;;5073047;28;20110;-63
2022/09/12 00:20:01;;;;;;;17.15;14.75;;;15.60;99.90;;;;;;5073808;28;19916;-63
2022/09/12 00:22:27;;;;;;;;;;;15.60;99.90;;;;;;5074069;28;20432;-63
2022/09/12 00:24:52;;;;;;;4.60;4.20;;;15.60;99.90;;;;;;5074246;28;19965;-63
2022/09/12 00:27:18;;;;;;;11.63;10.43;;;15.50;99.90;;;;;;5075110;28;20400;-63
2022/09/12 00:29:43;;;;;;;18.58;13.27;;;15.40;99.90;;;;;;5081436;28;20169;-63
2022/09/12 00:32:09;;;;;;;9.60;8.77;;;15.30;99.90;;;;;;5087189;28;20080;-63
2022/09/12 00:34:35;;;;;;;13.13;11.82;;;15.30;99.90;;;;;;5100440;28;20040;-63
2022/09/12 00:37:00;;;;;;;;;;;15.20;99.90;;;;;;5094803;28;20036;-63
2022/09/12 00:39:26;;;;;;;14.07;12.70;;;15.20;99.90;;;;;;5077056;28;19916;-63
2022/09/12 00:41:52;;;;;;;13.88;12.50;;;15.20;99.90;;;;;;5087655;28;20075;-63
2022/09/12 00:44:20;;;;;;;14.75;11.50;;;15.20;99.90;;;;;;5091556;28;20047;-63
2022/09/12 00:47:03;;;;;;;15.38;13.70;;;15.10;99.90;;;;;;5089086;28;20534;-63
2022/09/12 00:49:32;;;;;;;10.57;7.28;;;15.10;99.90;;;;;;5091553;28;20496;-63
2022/09/12 00:52:04;;;;;;;12.52;4.20;;;15.00;99.90;;;;;;5099236;28;20074;-63
2022/09/12 00:54:36;;;;;;;15.20;13.25;;;14.90;99.90;;;;;;5093602;28;20035;-63
2022/09/12 00:57:08;;;;;;;25.00;19.00;;;14.80;99.90;;;;;;5102729;28;20047;-63
2022/09/12 00:59:40;;;;;;;27.02;19.77;;;14.80;99.90;;;;;;5082233;28;20107;-63
2022/09/12 01:02:06;;;;;;;24.25;18.98;;;14.80;99.90;;;;;;5099849;28;20051;-63
2022/09/12 01:04:34;;;;;;;19.75;17.73;;;14.80;99.90;;;;;;5111009;28;20039;-63
2022/09/12 01:07:01;;;;;;;12.88;11.48;;;14.80;99.90;;;;;;5099027;28;20055;-63
2022/09/12 01:09:27;;;;;;;16.77;15.10;;;14.80;99.90;;;;;;5093876;28;20082;-63
2022/09/12 01:11:53;;;;;;;21.02;18.30;;;14.70;99.90;;;;;;5085728;28;20047;-63
2022/09/12 01:14:19;;;;;;;20.90;18.70;;;14.70;99.90;;;;;;5092217;28;20042;-63
2022/09/12 01:16:47;;;;;;;16.90;15.25;;;14.70;99.90;;;;;;5092766;28;20032;-63
2022/09/12 01:19:50;;;;;;;15.68;14.18;;;14.70;99.90;;;;;;5093360;28;20043;-63
2022/09/12 01:22:35;;;;;;;16.88;15.27;;;14.70;99.90;;;;;;5097842;28;20044;-63
2022/09/12 01:25:11;;;;;;;16.80;15.20;;;14.70;99.90;;;;;;5074918;28;20043;-63
2022/09/12 01:27:53;;;;;;;21.92;19.63;;;14.70;99.90;;;;;;5079273;28;20060;-63
2022/09/12 01:30:42;;;;;;;20.85;18.67;;;14.70;99.90;;;;;;5102438;28;20044;-63
2022/09/12 01:33:28;;;;;;;10.40;9.50;;;14.70;99.90;;;;;;5110568;28;20031;-63
2022/09/12 01:36:20;;;;;;;138.05;20.13;;;14.60;99.90;;;;;;5112158;28;20063;-63
2022/09/12 01:38:51;;;;;;;19.40;17.40;;;14.60;99.90;;;;;;5087793;28;20186;-63
2022/09/12 01:41:40;;;;;;;21.98;18.15;;;14.60;99.90;;;;;;5093102;28;20075;-63
2022/09/12 01:44:15;;;;;;;18.70;16.63;;;14.50;99.90;;;;;;5090709;28;20082;-63
2022/09/12 01:47:08;;;;;;;19.90;17.67;;;14.50;99.90;;;;;;5090840;28;20062;-63
2022/09/12 01:50:00;;;;;;;17.85;16.08;;;14.40;99.90;;;;;;5075754;28;20424;-63
2022/09/12 01:52:46;;;;;;;19.27;17.38;;;14.40;99.90;;;;;;5101308;28;20043;-63
2022/09/12 01:55:32;;;;;;;24.40;21.67;;;14.40;99.90;;;;;;5092226;28;20043;-63
2022/09/12 01:58:06;;;;;;;23.90;21.35;;;14.40;99.90;;;;;;5090112;28;20093;-63
2022/09/12 02:00:39;;;;;;;21.33;18.50;;;14.40;99.90;;;;;;5091837;28;20044;-63
2022/09/12 02:03:11;;;;;;;17.00;14.93;;;14.50;99.90;;;;;;5090963;28;20040;-63
2022/09/12 02:05:43;;;;;;;21.17;18.98;;;14.40;99.90;;;;;;5089974;28;20096;-63
2022/09/12 02:08:16;;;;;;;30.10;24.17;;;14.40;99.90;;;;;;5088761;28;20039;-63
2022/09/12 02:11:05;;;;;;;27.55;24.25;;;14.40;99.90;;;;;;5091528;28;20043;-63
2022/09/12 02:13:54;;;;;;;27.23;22.80;;;14.50;99.90;;;;;;5090401;28;20107;-64
2022/09/12 02:16:34;;;;;;;29.25;24.50;;;14.50;99.90;;;;;;5079199;28;20437;-63
2022/09/12 02:19:10;;;;;;;27.25;20.27;;;14.50;99.90;;;;;;5072784;28;20071;-64
2022/09/12 02:21:38;;;;;;;23.42;20.92;;;14.50;99.90;;;;;;5070141;28;20075;-63
2022/09/12 02:24:09;;;;;;;24.98;20.75;;;14.50;99.90;;;;;;5068427;28;20501;-63
2022/09/12 02:26:59;;;;;;;26.73;23.80;;;14.50;99.90;;;;;;5092953;28;20062;-63
2022/09/12 02:29:24;;;;;;;22.58;20.17;;;14.50;99.90;;;;;;5091736;28;20039;-63
2022/09/12 02:32:11;;;;;;;18.63;16.30;;;14.60;99.90;;;;;;5091088;28;20038;-63
2022/09/12 02:34:48;;;;;;;21.55;19.35;;;14.60;99.90;;;;;;5083756;28;20119;-64
2022/09/12 02:37:32;;;;;;;;;;;14.50;99.90;;;;;;5091272;28;20040;-63
2022/09/12 02:39:59;;;;;;;18.33;15.93;;;14.40;99.90;;;;;;5089928;28;19922;-63
2022/09/12 02:42:25;;;;;;;14.93;13.52;;;14.40;99.90;;;;;;5089767;28;20080;-64
2022/09/12 02:44:53;;;;;;;10.90;9.93;;;14.40;99.90;;;;;;5090872;28;20528;-63
2022/09/12 02:47:24;;;;;;;16.38;13.50;;;14.40;99.90;;;;;;5091312;28;20036;-63
2022/09/12 02:49:51;;;;;;;20.50;18.30;;;14.30;99.90;;;;;;5090070;28;20072;-63
2022/09/12 02:52:17;;;;;;;24.45;20.80;;;14.30;99.90;;;;;;5095379;28;20399;-63
2022/09/12 02:54:43;;;;;;;38.10;28.40;;;14.30;99.90;;;;;;5092107;28;20032;-63
2022/09/12 02:57:20;;;;;;;29.33;24.67;;;14.30;99.90;;;;;;5078129;28;20036;-63
2022/09/12 02:59:47;;;;;;;25.98;19.23;;;14.40;99.90;;;;;;5109319;28;20492;-63
2022/09/12 03:02:43;;;;;;;18.23;16.35;;;14.40;99.90;;;;;;5094041;27;20207;-63
2022/09/12 03:05:20;;;;;;;12.30;10.98;;;14.30;99.90;;;;;;5089912;28;20160;-63
2022/09/12 03:08:20;;;;;;;14.80;12.20;;;14.10;99.90;;;;;;5105856;28;20040;-63
2022/09/12 03:11:23;;;;;;;18.15;15.85;;;14.10;99.90;;;;;;5071578;28;20047;-63
2022/09/12 03:14:00;;;;;;;23.92;21.15;;;14.00;99.90;;;;;;5108696;28;20040;-63
2022/09/12 03:16:33;;;;;;;30.60;25.08;;;13.90;99.90;;;;;;5083073;28;20051;-63
2022/09/12 03:19:24;;;;;;;27.80;23.33;;;13.90;99.90;;;;;;5090706;28;20457;-63
2022/09/12 03:22:18;;;;;;;33.30;26.50;;;13.90;99.90;;;;;;5084406;28;20051;-63
2022/09/12 03:25:14;;;;;;;28.63;22.38;;;13.90;99.90;;;;;;5090380;28;20047;-63
2022/09/12 03:27:57;;;;;;;16.00;13.00;;;13.90;99.90;;;;;;5092986;28;20071;-63
2022/09/12 03:30:26;;;;;;;17.10;15.20;;;13.80;99.90;;;;;;5109253;28;20048;-63
2022/09/12 03:32:53;;;;;;;54.03;17.67;;;13.80;99.90;;;;;;5097419;28;20065;-63
2022/09/12 03:35:21;;;;;;;11.75;10.63;;;13.70;99.90;;;;;;5091508;28;20047;-63
2022/09/12 03:37:48;;;;;;;8.23;7.22;;;13.70;99.90;;;;;;5092148;28;20036;-63
2022/09/12 03:40:14;;;;;;;26.15;20.27;;;13.60;99.90;;;;;;5093832;28;20032;-63
2022/09/12 03:42:40;;;;;;;;;;;13.60;99.90;;;;;;5091695;28;20093;-63
2022/09/12 03:45:07;;;;;;;19.15;12.90;;;13.60;99.90;;;;;;5092250;28;19930;-63
2022/09/12 03:47:32;;;;;;;21.95;18.08;;;13.50;99.90;;;;;;5095592;28;20111;-63
2022/09/12 03:49:58;;;;;;;23.35;17.80;;;13.50;99.90;;;;;;5099552;28;20440;-63
2022/09/12 03:52:24;;;;;;;13.70;12.30;;;13.50;99.90;;;;;;5100038;28;20493;-63
2022/09/12 03:54:49;;;;;;;10.68;9.77;;;13.50;99.90;;;;;;5093045;28;20278;-63
2022/09/12 03:57:15;;;;;;;18.10;15.52;;;13.40;99.90;;;;;;5093463;28;20048;-63
2022/09/12 03:59:40;;;;;;;14.10;12.60;;;13.40;99.90;;;;;;5093650;28;20090;-63
2022/09/12 04:02:06;;;;;;;18.55;15.68;;;13.40;99.90;;;;;;5094071;28;20277;-63
2022/09/12 04:04:32;;;;;;;20.73;15.13;;;13.40;99.90;;;;;;5091918;28;20040;-63
2022/09/12 04:06:57;;;;;;;23.40;19.00;;;13.30;99.90;;;;;;5093900;28;20398;-63
2022/09/12 04:09:23;;;;;;;25.88;17.42;;;13.30;99.90;;;;;;5092674;28;20047;-63
2022/09/12 04:11:49;;;;;;;213.10;20.00;;;13.20;99.90;;;;;;5093722;28;20024;-63
2022/09/12 04:14:14;;;;;;;9.13;8.25;;;13.20;99.90;;;;;;5087744;28;20028;-63
2022/09/12 04:16:40;;;;;;;16.33;10.60;;;13.10;99.90;;;;;;5073263;28;20048;-63
2022/09/12 04:19:05;;;;;;;10.30;9.33;;;13.10;99.90;;;;;;5073391;28;20344;-63
2022/09/12 04:21:31;;;;;;;16.33;14.47;;;13.10;99.90;;;;;;5083655;28;20301;-63
2022/09/12 04:23:57;;;;;;;15.25;12.48;;;13.10;99.90;;;;;;5093282;28;20299;-63
2022/09/12 04:26:22;;;;;;;14.93;13.38;;;13.10;99.90;;;;;;5093738;28;20040;-63
2022/09/12 04:28:53;;;;;;;16.48;12.98;;;13.10;99.90;;;;;;5091998;28;20088;-63
2022/09/12 04:31:21;;;;;;;19.10;13.40;;;13.10;99.90;;;;;;5094702;28;20044;-63
2022/09/12 04:33:51;;;;;;;22.13;10.13;;;13.10;99.90;;;;;;5093280;28;20071;-63
2022/09/12 04:36:17;;;;;;;17.38;12.52;;;13.10;99.90;;;;;;5088162;28;20416;-63
2022/09/12 04:38:44;;;;;;;21.88;16.23;;;13.00;99.90;;;;;;5086519;28;20044;-63
2022/09/12 04:41:17;;;;;;;40.33;14.40;;;13.00;99.90;;;;;;5091646;28;20314;-63
2022/09/12 04:43:45;;;;;;;14.95;11.65;;;13.00;99.90;;;;;;5096318;28;20044;-63
2022/09/12 04:46:14;;;;;;;165.95;16.75;;;13.00;99.90;;;;;;5092155;28;20044;-63
2022/09/12 04:48:39;;;;;;;311.70;19.15;;;13.00;99.90;;;;;;5095961;28;20188;-63
2022/09/12 04:51:11;;;;;;;32.15;13.23;;;13.00;99.90;;;;;;5111862;28;20566;-63
2022/09/12 04:53:37;;;;;;;147.85;22.33;;;12.90;99.90;;;;;;5098339;28;20035;-63
2022/09/12 04:56:08;;;;;;;59.78;18.40;;;12.90;99.90;;;;;;5107404;28;20136;-63
2022/09/12 04:58:34;;;;;;;23.23;20.15;;;12.90;99.90;;;;;;5111193;28;20035;-63
2022/09/12 05:01:12;;;;;;;22.48;20.10;;;13.00;99.90;;;;;;5102345;28;20507;-63
2022/09/12 05:03:42;;;;;;;22.80;20.17;;;13.00;99.90;;;;;;5075781;28;20037;-63
2022/09/12 05:06:13;;;;;;;31.05;19.73;;;13.00;99.90;;;;;;5080683;28;20041;-63
2022/09/12 05:08:39;;;;;;;30.20;21.13;;;13.00;99.90;;;;;;5088025;28;20044;-63
2022/09/12 05:11:09;;;;;;;27.58;21.52;;;13.00;99.90;;;;;;5083556;28;20485;-63
2022/09/12 05:13:34;;;;;;;25.92;21.98;;;13.00;99.90;;;;;;5088896;28;20111;-63
2022/09/12 05:16:03;;;;;;;27.30;22.42;;;13.00;99.90;;;;;;5091428;28;20123;-63
2022/09/12 05:18:32;;;;;;;34.70;26.88;;;13.00;99.90;;;;;;5092182;28;20075;-63
2022/09/12 05:21:03;;;;;;;31.85;25.88;;;13.00;99.90;;;;;;5084490;28;20093;-63
2022/09/12 05:23:29;;;;;;;33.85;28.35;;;13.10;99.90;;;;;;5083390;28;20070;-63
2022/09/12 05:25:57;;;;;;;39.10;29.80;;;13.00;99.90;;;;;;5092673;28;20036;-63
2022/09/12 05:28:24;;;;;;;34.58;27.05;;;13.10;99.90;;;;;;5091384;28;20554;-63
2022/09/12 05:31:05;;;;;;;46.70;32.03;;;13.10;99.90;;;;;;5093485;28;20032;-63
2022/09/12 05:33:32;;;;;;;38.95;30.00;;;13.20;99.90;;;;;;5100452;28;20028;-63
2022/09/12 05:35:58;;;;;;;38.15;30.35;;;13.20;99.90;;;;;;5111110;28;20039;-63
2022/09/12 05:38:24;;;;;;;44.95;32.15;;;13.30;99.90;;;;;;5090852;28;20115;-63
2022/09/12 05:40:50;;;;;;;43.45;32.63;;;13.30;99.90;;;;;;5091995;28;20504;-63
2022/09/12 05:43:16;;;;;;;;;;;13.40;99.90;;;;;;5089654;28;20476;-63
2022/09/12 05:45:41;;;;;;;45.03;32.35;;;13.40;99.90;;;;;;5100684;28;19962;-63
2022/09/12 05:48:07;;;;;;;47.75;34.00;;;13.40;99.90;;;;;;5102008;28;20055;-63
2022/09/12 05:50:32;;;;;;;51.00;34.97;;;13.50;99.90;;;;;;5092053;28;20439;-63
2022/09/12 05:52:58;;;;;;;58.45;38.55;;;13.50;99.90;;;;;;5090168;28;20051;-63
2022/09/12 05:55:24;;;;;;;54.70;40.20;;;13.60;99.90;;;;;;5090567;28;20088;-63
2022/09/12 05:57:49;;;;;;;56.85;40.42;;;13.70;99.90;;;;;;5091743;28;20048;-63
2022/09/12 06:00:16;;;;;;;56.05;40.88;;;13.80;99.90;;;;;;5089338;28;20424;-63
2022/09/12 06:02:41;;;;;;;57.53;41.25;;;13.80;99.90;;;;;;5090807;28;20040;-63
2022/09/12 06:05:07;;;;;;;58.57;41.83;;;14.00;99.90;;;;;;5091359;28;20040;-63
2022/09/12 06:07:34;;;;;;;57.75;41.08;;;14.10;99.90;;;;;;5074541;28;20290;-63
2022/09/12 06:10:00;;;;;;;59.78;41.00;;;14.20;99.90;;;;;;5080113;28;20507;-63
2022/09/12 06:12:28;;;;;;;56.40;40.72;;;14.30;99.90;;;;;;5092205;28;20119;-63
2022/09/12 06:14:54;;;;;;;54.55;39.67;;;14.40;99.90;;;;;;5091394;28;20040;-63
2022/09/12 06:17:21;;;;;;;55.42;38.75;;;14.40;99.90;;;;;;5087887;28;20054;-63
2022/09/12 06:19:48;;;;;;;51.28;37.20;;;14.40;99.90;;;;;;5095557;28;20123;-63
2022/09/12 06:22:14;;;;;;;56.42;38.83;;;14.40;99.90;;;;;;5081020;28;20031;-63
2022/09/12 06:24:39;;;;;;;45.08;33.75;;;14.40;99.90;;;;;;5084219;28;20082;-60
2022/09/12 06:27:05;;;;;;;39.40;24.53;;;14.40;99.90;;;;;;5077076;28;20043;-60
2022/09/12 06:29:31;;;;;;;56.77;40.90;;;14.50;99.90;;;;;;5089121;28;20274;-63
2022/09/12 06:31:57;;;;;;;53.67;37.97;;;14.50;99.90;;;;;;5090766;28;20373;-63
2022/09/12 06:34:22;;;;;;;50.85;34.88;;;14.50;99.90;;;;;;5089508;28;20112;-63
2022/09/12 06:36:49;;;;;;;54.25;38.00;;;14.50;99.90;;;;;;5089024;28;20041;-63
2022/09/12 06:39:21;;;;;;;52.60;37.10;;;14.50;99.90;;;;;;5070436;28;20434;-63
2022/09/12 06:41:48;;;;;;;52.85;38.67;;;14.60;99.90;;;;;;5081675;28;20054;-63
2022/09/12 06:44:20;;;;;;;55.83;38.33;;;14.60;99.90;;;;;;5090114;28;20678;-63
2022/09/12 06:46:46;;;;;;;56.83;39.08;;;14.60;99.90;;;;;;5098082;28;20040;-63
2022/09/12 06:49:13;;;;;;;55.03;37.50;;;14.60;99.90;;;;;;5099371;28;20432;-63
2022/09/12 06:51:40;;;;;;;51.05;35.28;;;14.60;99.90;;;;;;5097387;28;20042;-63
2022/09/12 06:54:06;;;;;;;46.03;34.25;;;14.60;99.90;;;;;;5110138;28;20035;-63
2022/09/12 06:56:32;;;;;;;59.50;32.60;;;14.70;99.90;;;;;;5109109;28;20093;-63
2022/09/12 06:58:58;;;;;;;45.10;32.10;;;14.80;99.90;;;;;;5108374;28;20422;-62
2022/09/12 07:01:30;;;;;;;43.88;32.83;;;14.80;99.90;;;;;;5090758;28;20074;-63
2022/09/12 07:04:01;;;;;;;48.20;34.78;;;14.90;99.90;;;;;;5109944;28;20432;-63
2022/09/12 07:06:32;;;;;;;51.65;34.47;;;14.90;99.90;;;;;;5110116;28;20495;-62
2022/09/12 07:08:59;;;;;;;41.83;30.30;;;15.00;99.90;;;;;;5109767;28;20035;-64
2022/09/12 07:11:29;;;;;;;46.28;33.72;;;15.00;99.90;;;;;;5110808;28;20369;-62
2022/09/12 07:13:56;;;;;;;43.95;31.52;;;15.10;99.90;;;;;;5095548;28;20094;-62
2022/09/12 07:16:22;;;;;;;54.70;35.63;;;15.10;99.90;;;;;;5089753;28;20455;-64
2022/09/12 07:18:53;;;;;;;47.83;34.03;;;15.20;99.90;;;;;;5089190;28;20040;-63
2022/09/12 07:21:19;;;;;;;49.55;36.80;;;15.20;99.90;;;;;;5070632;28;20124;-64
2022/09/12 07:23:45;;;;;;;46.97;33.72;;;15.30;99.90;;;;;;5084175;28;20044;-64
2022/09/12 07:26:13;;;;;;;45.63;33.33;;;15.30;99.90;;;;;;5071125;28;20477;-63
2022/09/12 07:28:39;;;;;;;46.05;33.08;;;15.30;99.90;;;;;;5081574;28;20032;-63
2022/09/12 07:31:13;;;;;;;44.83;32.53;;;15.30;99.90;;;;;;5072133;28;20511;-65
2022/09/12 07:33:39;;;;;;;38.42;28.35;;;15.30;99.90;;;;;;5085367;28;20047;-64
2022/09/12 07:36:10;;;;;;;43.13;30.48;;;15.30;99.90;;;;;;5083166;28;20078;-64
2022/09/12 07:38:36;;;;;;;44.03;30.30;;;15.40;99.90;;;;;;5098877;28;20085;-64
2022/09/12 07:41:10;;;;;;;44.22;28.50;;;15.40;99.90;;;;;;5091924;28;20088;-64
2022/09/12 07:43:35;;;;;;;42.75;30.65;;;15.50;99.90;;;;;;5075525;28;20291;-64
2022/09/12 07:46:01;;;;;;;36.00;27.77;;;15.60;99.90;;;;;;5090767;28;20054;-63
2022/09/12 07:48:27;;;;;;;34.47;27.90;;;15.60;99.90;;;;;;5098717;28;20519;-63
2022/09/12 07:51:00;;;;;;;41.75;29.85;;;15.60;99.90;;;;;;5102240;28;20507;-63
2022/09/12 07:53:31;;;;;;;42.45;30.63;;;15.70;99.90;;;;;;5087508;28;20040;-63
2022/09/12 07:55:57;;;;;;;41.53;29.20;;;15.70;99.90;;;;;;5079795;28;20044;-63
2022/09/12 07:58:23;;;;;;;37.10;28.33;;;15.80;99.90;;;;;;5084628;28;20054;-63
2022/09/12 08:00:49;;;;;;;41.40;30.17;;;15.80;99.90;;;;;;5075292;28;20117;-64
2022/09/12 08:03:15;;;;;;;42.22;27.55;;;15.90;99.90;;;;;;5089431;28;20036;-63
2022/09/12 08:05:41;;;;;;;32.38;26.30;;;15.90;99.90;;;;;;5078820;28;20558;-63
2022/09/12 08:08:06;;;;;;;35.75;27.85;;;16.00;99.90;;;;;;5081728;28;20107;-63
2022/09/12 08:10:32;;;;;;;35.42;27.55;;;16.10;99.90;;;;;;5081830;28;20044;-64
2022/09/12 08:12:57;;;;;;;38.63;25.98;;;16.20;99.90;;;;;;5088624;28;20477;-64
2022/09/12 08:15:23;;;;;;;30.08;24.80;;;16.20;99.90;;;;;;5089050;28;20240;-63
2022/09/12 08:17:49;;;;;;;34.28;26.73;;;16.30;99.90;;;;;;5085869;28;20039;-63
2022/09/12 08:20:16;;;;;;;32.65;25.60;;;16.30;99.90;;;;;;5072668;28;20029;-63
2022/09/12 08:22:42;;;;;;;32.58;26.13;;;16.30;99.90;;;;;;5071411;28;20480;-63
2022/09/12 08:25:08;;;;;;;36.83;26.35;;;16.40;99.90;;;;;;5100048;28;20092;-63
2022/09/12 08:27:33;;;;;;;30.67;24.73;;;16.40;99.90;;;;;;5088348;28;20050;-63
2022/09/12 08:29:59;;;;;;;29.40;24.42;;;16.50;99.90;;;;;;5077319;28;20029;-63
2022/09/12 08:32:25;;;;;;;37.63;27.08;;;16.50;99.90;;;;;;5082650;28;20035;-63
2022/09/12 08:34:50;;;;;;;33.28;26.60;;;16.60;99.90;;;;;;5088504;28;20139;-63
2022/09/12 08:37:16;;;;;;;38.40;26.90;;;16.60;99.90;;;;;;5081443;28;20407;-63
2022/09/12 08:39:42;;;;;;;37.67;27.85;;;16.60;99.90;;;;;;5087777;28;20040;-63
2022/09/12 08:42:15;;;;;;;37.20;27.50;;;16.60;99.90;;;;;;5087446;28;20040;-63
2022/09/12 08:44:54;;;;;;;41.03;28.67;;;16.70;99.90;;;;;;5083088;28;20036;-63
2022/09/12 08:47:35;;;;;;;33.97;27.23;;;16.70;99.90;;;;;;5089639;28;20044;-63
2022/09/12 08:50:10;;;;;;;72.03;60.40;;;16.70;99.90;;;;;;5088900;28;20036;-62
2022/09/12 08:52:44;;;;;;;107.78;96.63;;;16.80;99.90;;;;;;5093549;28;20043;-63
2022/09/12 08:55:32;;;;;;;46.20;33.15;;;16.80;99.90;;;;;;5081489;28;20446;-63
2022/09/12 08:58:15;;;;;;;39.75;31.35;;;16.90;99.90;;;;;;5080676;28;20040;-63
2022/09/12 09:01:05;;;;;;;44.95;29.60;;;17.00;99.90;;;;;;5083982;28;20032;-63
2022/09/12 09:03:49;;;;;;;45.20;31.48;;;17.10;99.90;;;;;;5086165;28;20396;-63
2022/09/12 09:06:42;;;;;;;75.22;67.05;;;17.20;99.90;;;;;;5074921;28;20302;-63
2022/09/12 09:09:15;;;;;;;44.22;30.73;;;17.30;99.90;;;;;;5083745;28;20032;-63
2022/09/12 09:11:48;;;;;;;41.78;30.25;;;17.40;99.90;;;;;;5086819;28;20093;-63
2022/09/12 09:14:50;;;;;;;49.83;31.10;;;17.50;99.90;;;;;;5077208;28;20037;-63
2022/09/12 09:17:28;;;;;;;53.50;37.88;;;17.60;99.90;;;;;;5106511;28;20048;-63
2022/09/12 09:20:03;;;;;;;40.95;27.92;;;17.70;99.90;;;;;;5104517;28;20071;-62
2022/09/12 09:22:36;;;;;;;41.70;30.10;;;17.90;99.90;;;;;;5106305;28;20051;-62
2022/09/12 09:25:08;;;;;;;52.47;35.08;;;18.00;99.90;;;;;;5067573;28;20041;-62
2022/09/12 09:27:45;;;;;;;53.47;41.53;;;18.20;99.90;;;;;;5087116;28;20564;-63
2022/09/12 09:30:17;;;;;;;45.78;33.60;;;18.50;99.90;;;;;;5088142;28;20028;-63
2022/09/12 09:32:47;;;;;;;47.38;31.63;;;18.60;99.90;;;;;;5087271;28;20056;-63
2022/09/12 09:35:17;;;;;;;218.68;181.43;;;18.70;99.90;;;;;;5080770;28;20086;-62
2022/09/12 09:38:04;;;;;;;50.38;34.88;;;18.80;99.90;;;;;;5081399;28;20048;-63
2022/09/12 09:40:53;;;;;;;41.42;29.25;;;18.90;99.90;;;;;;5086866;28;20127;-62
2022/09/12 09:43:24;;;;;;;44.22;28.60;;;19.00;99.90;;;;;;5086048;28;20182;-62
2022/09/12 09:45:51;;;;;;;39.80;28.73;;;19.10;99.90;;;;;;5073770;28;20047;-62
2022/09/12 09:48:36;;;;;;;38.15;29.58;;;19.10;99.90;;;;;;5086682;28;20040;-63
2022/09/12 09:51:04;;;;;;;41.20;29.38;;;19.10;99.90;;;;;;5072840;28;20032;-62
2022/09/12 09:53:45;;;;;;;44.25;29.60;;;19.20;99.90;;;;;;5078805;28;20036;-63
2022/09/12 09:56:34;;;;;;;46.53;30.70;;;19.30;99.90;;;;;;5083729;28;20040;-62
2022/09/12 09:59:15;;;;;;;44.55;29.50;;;19.40;99.90;;;;;;5082495;28;20044;-62
2022/09/12 10:01:56;;;;;;;37.33;27.30;;;19.60;99.90;;;;;;5087105;28;20043;-62
2022/09/12 10:04:28;;;;;;;42.40;28.45;;;19.80;99.90;;;;;;5073427;28;20032;-62
2022/09/12 10:07:04;;;;;;;38.03;26.63;;;19.90;99.90;;;;;;5074094;28;20032;-63
2022/09/12 10:09:32;;;;;;;34.33;25.40;;;20.00;99.90;;;;;;5083838;28;20048;-62
2022/09/12 10:11:58;;;;;;;155.00;137.93;;;20.20;99.90;;;;;;5073537;28;20040;-62
2022/09/12 10:14:35;;;;;;;54.50;39.15;;;20.30;99.90;;;;;;5086531;28;20054;-59
2022/09/12 10:17:02;;;;;;;;;;;20.50;99.90;;;;;;5080451;28;20120;-62
2022/09/12 10:19:37;;;;;;;47.63;36.60;;;20.60;99.90;;;;;;5082209;28;19932;-63
2022/09/12 10:22:04;;;;;;;36.78;24.63;;;20.70;99.90;;;;;;5091482;28;20043;-62
2022/09/12 10:24:41;;;;;;;33.53;25.08;;;20.70;99.90;;;;;;5096311;28;20067;-61
2022/09/12 10:27:12;;;;;;;;;;;20.80;99.90;;;;;;5095653;28;20051;-62
2022/09/12 10:29:47;;;;;;;84.80;68.32;;;20.90;99.90;;;;;;5090741;28;19915;-62
2022/09/12 10:32:24;;;;;;;62.78;53.55;;;21.10;99.90;;;;;;5093709;28;20081;-61
2022/09/12 10:34:53;;;;;;;57.70;43.25;;;21.30;99.90;;;;;;5089376;28;20462;-62
2022/09/12 10:37:28;;;;;;;55.33;40.92;;;21.40;99.90;;;;;;5096839;28;20371;-62
2022/09/12 10:39:56;;;;;;;24.13;20.48;;;21.60;99.90;;;;;;5092735;28;20036;-62
2022/09/12 10:43:01;;;;;;;29.83;21.23;;;21.60;99.90;;;;;;5092638;28;20521;-62
2022/09/12 10:45:37;;;;;;;31.35;21.98;;;21.70;99.90;;;;;;5072797;28;20071;-62
2022/09/12 10:48:24;;;;;;;24.92;18.80;;;21.70;99.90;;;;;;5071463;28;20063;-59
2022/09/12 10:50:50;;;;;;;26.27;18.92;;;21.80;99.90;;;;;;5081829;28;20069;-58
2022/09/12 10:53:24;;;;;;;24.80;18.52;;;21.90;99.80;;;;;;5093219;28;20134;-59
2022/09/12 10:56:00;;;;;;;23.23;18.27;;;22.00;99.00;;;;;;5094631;28;20044;-59
2022/09/12 10:58:35;;;;;;;26.45;18.95;;;22.00;98.50;;;;;;5089141;28;20040;-58
2022/09/12 11:01:34;;;;;;;27.20;18.60;;;22.00;98.30;;;;;;5089504;28;20474;-55
2022/09/12 11:04:20;;;;;;;26.27;20.35;;;22.10;98.20;;;;;;5090254;28;20040;-59
2022/09/12 11:07:13;;;;;;;35.35;22.25;;;22.20;97.60;;;;;;5087253;28;20134;-58
2022/09/12 11:09:38;;;;;;;25.00;20.20;;;22.30;98.00;;;;;;5080752;28;20035;-58
2022/09/12 11:12:19;;;;;;;;;;;22.40;98.40;;;;;;5089896;28;20044;-57
2022/09/12 11:15:06;;;;;;;25.85;17.83;;;22.50;97.70;;;;;;5088834;28;19916;-58
2022/09/12 11:17:41;;;;;;;;;;;22.50;96.50;;;;;;5092243;28;20435;-59
2022/09/12 11:20:37;;;;;;;22.40;18.23;;;22.50;96.90;;;;;;5089504;28;19924;-58
2022/09/12 11:23:23;;;;;;;38.45;32.13;;;22.50;97.30;;;;;;5088991;28;20036;-59
2022/09/12 11:26:23;;;;;;;22.33;15.82;;;22.50;96.80;;;;;;5096222;28;20032;-58
2022/09/12 11:29:19;;;;;;;26.92;18.02;;;22.60;96.70;;;;;;5095134;28;20031;-59
2022/09/12 11:31:51;;;;;;;23.92;16.65;;;22.60;95.80;;;;;;5092545;28;20032;-56
2022/09/12 11:34:48;;;;;;;21.13;14.52;;;22.70;96.40;;;;;;5091087;28;20039;-57
2022/09/12 11:37:35;;;;;;;22.80;15.35;;;22.80;97.40;;;;;;5088575;28;20031;-59
2022/09/12 11:40:26;;;;;;;21.13;13.93;;;22.90;96.30;;;;;;5089488;28;20469;-57
2022/09/12 11:42:58;;;;;;;19.58;12.88;;;23.00;96.30;;;;;;5094711;28;20036;-58
2022/09/12 11:45:38;;;;;;;20.27;14.60;;;23.10;95.60;;;;;;5097328;28;20091;-58
2022/09/12 11:48:10;;;;;;;15.57;13.23;;;23.20;95.10;;;;;;5095285;28;20032;-59
2022/09/12 11:50:36;;;;;;;15.77;13.77;;;23.20;95.30;;;;;;5093611;28;20558;-59
2022/09/12 11:53:04;;;;;;;;;;;23.20;94.80;;;;;;5090854;28;20116;-59
2022/09/12 11:55:43;;;;;;;14.68;11.98;;;23.20;95.40;;;;;;5088444;28;20107;-59
2022/09/12 11:58:11;;;;;;;18.92;13.90;;;23.10;95.20;;;;;;5094501;28;20068;-59
2022/09/12 12:00:41;;;;;;;16.98;14.07;;;23.00;95.10;;;;;;5077348;28;20051;-59
2022/09/12 12:03:32;;;;;;;12.60;10.82;;;22.90;95.40;;;;;;5092392;28;20056;-60
2022/09/12 12:06:05;;;;;;;16.45;10.80;;;22.80;94.50;;;;;;5095789;28;20047;-60
2022/09/12 12:08:38;;;;;;;14.07;10.07;;;22.90;94.80;;;;;;5095262;28;20035;-60
2022/09/12 12:11:05;;;;;;;12.98;9.65;;;23.00;95.10;;;;;;5098021;28;20043;-59
2022/09/12 12:13:32;;;;;;;13.65;9.55;;;23.20;94.90;;;;;;5097560;28;20036;-58
2022/09/12 12:16:16;;;;;;;10.00;9.00;;;23.20;94.50;;;;;;5096196;28;20043;-60
2022/09/12 12:18:42;;;;;;;14.70;10.90;;;23.30;95.10;;;;;;5097040;28;20043;-60
2022/09/12 12:21:18;;;;;;;;;;;23.40;94.80;;;;;;5097937;28;20483;-60
2022/09/12 12:24:11;;;;;;;9.55;8.23;;;23.60;94.50;;;;;;5099148;28;19976;-59
2022/09/12 12:26:39;;;;;;;11.63;9.05;;;23.70;94.30;;;;;;5094681;28;20036;-60
2022/09/12 12:29:17;;;;;;;10.32;8.30;;;23.60;93.70;;;;;;5097120;28;20323;-59
2022/09/12 12:31:57;;;;;;;11.52;8.93;;;23.70;94.60;;;;;;5098523;28;20036;-60
2022/09/12 12:34:33;;;;;;;14.23;10.98;;;23.80;93.50;;;;;;5098128;28;20039;-60
2022/09/12 12:37:19;;;;;;;11.60;9.20;;;23.80;93.20;;;;;;5095823;28;20519;-60
2022/09/12 12:39:52;;;;;;;14.35;10.07;;;23.90;93.60;;;;;;5095899;28;20048;-59
2022/09/12 12:42:43;;;;;;;13.52;10.02;;;23.90;93.80;;;;;;5094868;28;20058;-59
2022/09/12 12:45:44;;;;;;;14.20;9.63;;;23.80;93.10;;;;;;5090526;28;20503;-59
2022/09/12 12:48:15;;;;;;;12.30;9.10;;;23.80;93.30;;;;;;5095866;28;20042;-59
2022/09/12 12:50:41;;;;;;;14.57;9.07;;;23.90;93.40;;;;;;5097289;28;20031;-60
2022/09/12 12:53:23;;;;;;;11.80;8.88;;;23.90;93.10;;;;;;5098002;28;20042;-60
2022/09/12 12:55:51;;;;;;;15.40;9.02;;;23.90;92.80;;;;;;5098697;28;20031;-60
2022/09/12 12:58:39;;;;;;;12.75;8.95;;;23.80;92.90;;;;;;5094785;28;20315;-60